createdAt,value
2022-12-24T00:01:37.969Z,3.20
2022-12-24T00:04:06.738Z,3.19
2022-12-24T00:06:35.657Z,3.18
2022-12-24T00:09:04.252Z,3.18
2022-12-24T00:11:34.070Z,3.18
2022-12-24T00:14:02.803Z,3.17
2022-12-24T00:16:31.525Z,3.17
2022-12-24T00:19:00.392Z,3.16
2022-12-24T00:21:29.407Z,3.15
2022-12-24T00:23:58.753Z,3.13
2022-12-24T00:26:28.108Z,3.10
2022-12-24T00:28:57.239Z,3.07
2022-12-24T00:31:27.648Z,3.07
2022-12-24T00:33:56.846Z,3.06
2022-12-24T00:36:25.589Z,3.05
2022-12-24T00:38:54.623Z,3.02
2022-12-24T00:41:28.133Z,2.99
2022-12-24T00:44:02.410Z,2.98
2022-12-24T00:46:32.361Z,3.01
2022-12-24T00:49:01.401Z,3.00
2022-12-24T00:51:30.401Z,3.00
2022-12-24T00:53:59.320Z,2.98
2022-12-24T00:56:28.622Z,2.95
2022-12-24T00:58:57.083Z,2.96
2022-12-24T01:01:26.030Z,2.94
2022-12-24T01:03:59.602Z,2.93
2022-12-24T01:06:29.971Z,2.95
2022-12-24T01:08:58.504Z,2.96
2022-12-24T01:11:26.995Z,2.99
2022-12-24T01:13:56.957Z,3.01
2022-12-24T01:16:26.209Z,3.05
2022-12-24T01:18:55.028Z,3.06
2022-12-24T01:21:25.655Z,3.07
2022-12-24T01:23:54.820Z,3.07
2022-12-24T01:26:23.847Z,3.03
2022-12-24T01:28:52.954Z,3.03
2022-12-24T01:31:22.597Z,3.04
2022-12-24T01:33:51.250Z,3.05
2022-12-24T01:36:20.402Z,3.06
2022-12-24T01:38:49.747Z,3.07
2022-12-24T01:41:40.416Z,3.07
2022-12-24T01:44:33.494Z,3.09
2022-12-24T01:47:10.516Z,3.11
2022-12-24T01:49:43.756Z,3.12
2022-12-24T01:52:23.203Z,3.15
2022-12-24T01:54:55.527Z,3.16
2022-12-24T01:57:28.704Z,3.16
2022-12-24T02:00:00.926Z,3.15
2022-12-24T02:02:30.615Z,3.16
2022-12-24T02:05:06.804Z,3.16
2022-12-24T02:07:35.407Z,3.17
2022-12-24T02:10:08.236Z,3.17
2022-12-24T02:12:37.200Z,3.19
2022-12-24T02:15:07.417Z,3.20
2022-12-24T02:17:53.197Z,3.21
2022-12-24T02:20:52.940Z,3.23
2022-12-24T02:23:48.212Z,3.24
2022-12-24T02:26:31.226Z,3.26
2022-12-24T02:29:23.301Z,3.25
2022-12-24T02:32:07.794Z,3.23
2022-12-24T02:34:52.109Z,3.21
2022-12-24T02:37:27.741Z,3.16
2022-12-24T02:40:03.476Z,3.14
2022-12-24T02:42:40.835Z,3.14
2022-12-24T02:45:13.649Z,3.15
2022-12-24T02:47:42.670Z,3.14
2022-12-24T02:50:14.269Z,3.14
2022-12-24T02:52:44.840Z,3.14
2022-12-24T02:55:24.751Z,3.13
2022-12-24T02:58:24.442Z,3.15
2022-12-24T03:01:17.152Z,3.14
2022-12-24T03:04:00.784Z,3.12
2022-12-24T03:06:56.233Z,3.10
2022-12-24T03:09:30.416Z,3.11
2022-12-24T03:12:06.468Z,3.08
2022-12-24T03:14:35.781Z,3.07
2022-12-24T03:17:04.768Z,3.07
2022-12-24T03:19:33.864Z,3.06
2022-12-24T03:22:04.535Z,3.03
2022-12-24T03:24:33.058Z,3.02
2022-12-24T03:27:01.797Z,3.03
2022-12-24T03:29:30.344Z,3.00
2022-12-24T03:32:02.718Z,3.00
2022-12-24T03:34:33.275Z,3.03
2022-12-24T03:37:02.019Z,3.06
2022-12-24T03:39:30.541Z,3.09
2022-12-24T03:41:59.785Z,3.10
2022-12-24T03:44:28.673Z,3.12
2022-12-24T03:46:57.632Z,3.13
2022-12-24T03:49:26.612Z,3.14
2022-12-24T03:51:55.092Z,3.15
2022-12-24T03:54:23.541Z,3.14
2022-12-24T03:56:51.944Z,3.13
2022-12-24T03:59:21.022Z,3.12
2022-12-24T04:01:50.250Z,3.09
2022-12-24T04:04:19.135Z,3.08
2022-12-24T04:06:47.704Z,3.06
2022-12-24T04:09:16.440Z,3.05
2022-12-24T04:11:45.371Z,3.03
2022-12-24T04:14:14.559Z,3.03
2022-12-24T04:16:43.417Z,3.04
2022-12-24T04:19:12.811Z,3.05
2022-12-24T04:21:41.676Z,3.05
2022-12-24T04:24:10.169Z,3.06
2022-12-24T04:26:39.563Z,3.07
2022-12-24T04:29:08.092Z,3.08
2022-12-24T04:31:37.582Z,3.10
2022-12-24T04:34:06.350Z,3.13
2022-12-24T04:36:35.657Z,3.14
2022-12-24T04:39:04.231Z,3.17
2022-12-24T04:41:32.837Z,3.19
2022-12-24T04:44:01.517Z,3.22
2022-12-24T04:46:30.990Z,3.25
2022-12-24T04:49:00.235Z,3.26
2022-12-24T04:51:30.432Z,3.28
2022-12-24T04:53:59.063Z,3.31
2022-12-24T04:56:30.229Z,3.32
2022-12-24T04:59:01.745Z,3.34
2022-12-24T05:01:32.395Z,3.34
2022-12-24T05:04:00.885Z,3.31
2022-12-24T05:06:31.570Z,3.32
2022-12-24T05:09:00.523Z,3.32
2022-12-24T05:11:29.561Z,3.29
2022-12-24T05:13:58.445Z,3.30
2022-12-24T05:16:27.392Z,3.30
2022-12-24T05:18:56.199Z,3.33
2022-12-24T05:21:24.798Z,3.35
2022-12-24T05:24:12.305Z,3.34
2022-12-24T05:26:56.316Z,3.32
2022-12-24T05:29:25.247Z,3.28
2022-12-24T05:31:54.625Z,3.27
2022-12-24T05:34:23.241Z,3.26
2022-12-24T05:36:52.076Z,3.29
2022-12-24T05:39:21.158Z,3.31
2022-12-24T05:41:49.767Z,3.35
2022-12-24T05:44:18.390Z,3.39
2022-12-24T05:46:48.723Z,3.40
2022-12-24T05:49:17.312Z,3.37
2022-12-24T05:51:46.077Z,3.35
2022-12-24T05:54:14.992Z,3.34
2022-12-24T05:56:43.534Z,3.33
2022-12-24T05:59:13.277Z,3.34
2022-12-24T06:01:43.839Z,3.34
2022-12-24T06:04:12.888Z,3.36
2022-12-24T06:06:43.245Z,3.39
2022-12-24T06:09:11.947Z,3.41
2022-12-24T06:11:40.675Z,3.43
2022-12-24T06:14:10.208Z,3.43
2022-12-24T06:16:39.106Z,3.41
2022-12-24T06:19:07.777Z,3.42
2022-12-24T06:21:36.645Z,3.42
2022-12-24T06:24:06.176Z,3.42
2022-12-24T06:26:35.290Z,3.42
2022-12-24T06:29:03.745Z,3.43
2022-12-24T06:31:33.487Z,3.46
2022-12-24T06:34:02.448Z,3.45
2022-12-24T06:36:31.095Z,3.46
2022-12-24T06:39:00.226Z,3.45
2022-12-24T06:41:30.995Z,3.44
2022-12-24T06:43:59.679Z,3.42
2022-12-24T06:46:28.361Z,3.44
2022-12-24T06:48:57.246Z,3.45
2022-12-24T06:51:26.292Z,3.49
2022-12-24T06:53:54.895Z,3.50
2022-12-24T06:56:23.461Z,3.52
2022-12-24T06:58:52.158Z,3.55
2022-12-24T07:01:21.364Z,3.58
2022-12-24T07:03:50.093Z,3.61
2022-12-24T07:06:27.482Z,3.63
2022-12-24T07:08:55.641Z,3.65
2022-12-24T07:11:24.874Z,3.68
2022-12-24T07:13:53.730Z,3.69
2022-12-24T07:16:22.595Z,3.70
2022-12-24T07:18:51.782Z,3.71
2022-12-24T07:21:22.542Z,3.71
2022-12-24T07:23:51.141Z,3.76
2022-12-24T07:26:20.139Z,3.76
2022-12-24T07:28:48.712Z,3.79
2022-12-24T07:31:17.771Z,3.82
2022-12-24T07:33:46.522Z,3.85
2022-12-24T07:36:20.466Z,3.91
2022-12-24T07:38:49.742Z,3.95
2022-12-24T07:41:19.931Z,3.97
2022-12-24T07:43:48.455Z,3.99
2022-12-24T07:46:16.987Z,3.99
2022-12-24T07:48:46.202Z,4.02
2022-12-24T07:51:14.922Z,4.03
2022-12-24T07:53:45.614Z,4.05
2022-12-24T07:56:15.574Z,4.08
2022-12-24T07:58:44.055Z,4.12
2022-12-24T08:01:13.339Z,4.14
2022-12-24T08:03:42.372Z,4.14
2022-12-24T08:06:11.727Z,4.16
2022-12-24T08:08:41.096Z,4.15
2022-12-24T08:11:09.909Z,4.14
2022-12-24T08:13:39.094Z,4.13
2022-12-24T08:16:07.941Z,4.13
2022-12-24T08:18:36.865Z,4.16
2022-12-24T08:21:08.214Z,4.16
2022-12-24T08:23:37.354Z,4.17
2022-12-24T08:26:09.712Z,4.18
2022-12-24T08:28:39.647Z,4.21
2022-12-24T08:31:08.831Z,4.22
2022-12-24T08:33:38.653Z,4.24
2022-12-24T08:36:08.271Z,4.28
2022-12-24T08:38:37.280Z,4.30
2022-12-24T08:41:09.256Z,4.34
2022-12-24T08:43:38.130Z,4.41
2022-12-24T08:46:06.774Z,4.44
2022-12-24T08:48:36.518Z,4.47
2022-12-24T08:51:12.186Z,4.53
2022-12-24T08:53:43.597Z,4.56
2022-12-24T08:56:12.297Z,4.59
2022-12-24T08:58:41.136Z,4.57
2022-12-24T09:01:16.101Z,4.60
2022-12-24T09:03:46.627Z,4.60
2022-12-24T09:06:15.839Z,4.64
2022-12-24T09:08:44.960Z,4.68
2022-12-24T09:11:16.250Z,4.71
2022-12-24T09:13:45.290Z,4.74
2022-12-24T09:16:15.620Z,4.76
2022-12-24T09:18:45.699Z,4.78
2022-12-24T09:21:16.132Z,4.83
2022-12-24T09:23:47.381Z,4.86
2022-12-24T09:26:20.215Z,4.89
2022-12-24T09:28:49.648Z,4.95
2022-12-24T09:31:21.362Z,4.99
2022-12-24T09:33:50.910Z,5.01
2022-12-24T09:36:19.971Z,5.02
2022-12-24T09:38:49.282Z,5.03
2022-12-24T09:41:43.242Z,5.04
2022-12-24T09:44:27.063Z,5.05
2022-12-24T09:46:57.099Z,5.07
2022-12-24T09:49:29.015Z,5.07
2022-12-24T09:52:01.671Z,5.09
2022-12-24T09:54:49.881Z,5.13
2022-12-24T09:57:23.043Z,5.14
2022-12-24T09:59:52.185Z,5.12
2022-12-24T10:02:21.065Z,5.12
2022-12-24T10:04:50.324Z,5.14
2022-12-24T10:07:39.430Z,5.14
2022-12-24T10:10:33.335Z,5.16
2022-12-24T10:13:13.554Z,5.16
2022-12-24T10:16:09.307Z,5.21
2022-12-24T10:18:55.623Z,5.18
2022-12-24T10:21:41.819Z,5.19
2022-12-24T10:24:51.022Z,5.20
2022-12-24T10:27:21.775Z,5.21
2022-12-24T10:30:02.020Z,5.18
2022-12-24T10:32:33.739Z,5.18
2022-12-24T10:35:22.791Z,5.16
2022-12-24T10:37:52.626Z,5.18
2022-12-24T10:40:44.611Z,5.18
2022-12-24T10:43:19.660Z,5.17
2022-12-24T10:45:51.597Z,5.17
2022-12-24T10:48:42.363Z,5.15
2022-12-24T10:51:31.101Z,5.14
2022-12-24T10:54:04.360Z,5.15
2022-12-24T10:56:35.450Z,5.17
2022-12-24T10:59:04.395Z,5.19
2022-12-24T11:01:48.885Z,5.19
2022-12-24T11:04:27.916Z,5.21
2022-12-24T11:07:05.429Z,5.22
2022-12-24T11:09:36.802Z,5.26
2022-12-24T11:12:09.199Z,5.26
2022-12-24T11:14:39.736Z,5.22
2022-12-24T11:17:10.081Z,5.18
2022-12-24T11:19:39.708Z,5.19
2022-12-24T11:22:25.970Z,5.22
2022-12-24T11:25:02.099Z,5.26
2022-12-24T11:27:46.006Z,5.28
2022-12-24T11:30:21.295Z,5.31
2022-12-24T11:32:55.115Z,5.32
2022-12-24T11:35:24.272Z,5.33
2022-12-24T11:38:07.405Z,5.35
2022-12-24T11:40:42.731Z,5.35
2022-12-24T11:43:19.320Z,5.37
2022-12-24T11:45:54.868Z,5.37
2022-12-24T11:48:33.004Z,5.35
2022-12-24T11:51:04.377Z,5.38
2022-12-24T11:54:02.192Z,5.36
2022-12-24T11:56:40.562Z,5.36
2022-12-24T11:59:17.843Z,5.37
2022-12-24T12:01:58.595Z,5.37
2022-12-24T12:04:33.968Z,5.38
2022-12-24T12:07:17.174Z,5.36
2022-12-24T12:09:52.117Z,5.38
2022-12-24T12:12:30.887Z,5.44
2022-12-24T12:15:04.743Z,5.44
2022-12-24T12:17:48.154Z,5.43
2022-12-24T12:20:36.644Z,5.45
2022-12-24T12:23:19.156Z,5.45
2022-12-24T12:26:00.597Z,5.44
2022-12-24T12:28:37.692Z,5.45
2022-12-24T12:31:16.515Z,5.45
2022-12-24T12:34:18.320Z,5.46
2022-12-24T12:37:03.840Z,5.46
2022-12-24T12:39:33.228Z,5.46
2022-12-24T12:42:35.812Z,5.47
2022-12-24T12:45:35.629Z,5.48
2022-12-24T12:48:30.678Z,5.51
2022-12-24T12:51:09.445Z,5.52
2022-12-24T12:54:11.084Z,5.49
2022-12-24T12:56:40.424Z,5.46
2022-12-24T12:59:21.111Z,5.47
2022-12-24T13:02:10.826Z,5.46
2022-12-24T13:05:15.341Z,5.45
2022-12-24T13:08:27.524Z,5.45
2022-12-24T13:11:04.621Z,5.45
2022-12-24T13:13:51.591Z,5.40
2022-12-24T13:16:59.626Z,5.40
2022-12-24T13:19:39.524Z,5.37
2022-12-24T13:22:17.232Z,5.33
2022-12-24T13:24:54.342Z,5.30
2022-12-24T13:27:33.850Z,5.28
2022-12-24T13:30:35.854Z,5.26
2022-12-24T13:33:05.711Z,5.24
2022-12-24T13:35:38.219Z,5.24
2022-12-24T13:38:31.619Z,5.24
2022-12-24T13:41:39.327Z,5.26
2022-12-24T13:44:20.372Z,5.26
2022-12-24T13:47:07.555Z,5.27
2022-12-24T13:49:44.975Z,5.32
2022-12-24T13:52:18.528Z,5.34
2022-12-24T13:55:01.502Z,5.33
2022-12-24T13:57:47.936Z,5.33
2022-12-24T14:00:42.672Z,5.30
2022-12-24T14:03:22.880Z,5.29
2022-12-24T14:05:58.751Z,5.29
2022-12-24T14:08:43.739Z,5.26
2022-12-24T14:11:20.396Z,5.21
2022-12-24T14:13:53.653Z,5.17
2022-12-24T14:16:28.038Z,5.15
2022-12-24T14:19:05.866Z,5.12
2022-12-24T14:21:38.490Z,5.14
2022-12-24T14:24:25.245Z,5.10
2022-12-24T14:26:59.311Z,5.04
2022-12-24T14:29:33.984Z,5.02
2022-12-24T14:32:06.203Z,5.04
2022-12-24T14:34:36.943Z,5.04
2022-12-24T14:37:06.559Z,5.06
2022-12-24T14:39:39.280Z,5.08
2022-12-24T14:42:31.583Z,5.06
2022-12-24T14:45:17.799Z,5.05
2022-12-24T14:47:55.394Z,5.03
2022-12-24T14:50:42.051Z,5.02
2022-12-24T14:53:44.235Z,5.06
2022-12-24T14:56:22.205Z,5.11
2022-12-24T14:58:52.225Z,5.08
2022-12-24T15:01:29.313Z,5.06
2022-12-24T15:04:14.047Z,5.01
2022-12-24T15:06:50.274Z,4.98
2022-12-24T15:09:29.040Z,4.92
2022-12-24T15:12:00.633Z,4.89
2022-12-24T15:14:30.382Z,4.84
2022-12-24T15:17:04.373Z,4.80
2022-12-24T15:19:36.926Z,4.76
2022-12-24T15:22:13.115Z,4.71
2022-12-24T15:24:47.843Z,4.70
2022-12-24T15:27:21.012Z,4.70
2022-12-24T15:29:52.943Z,4.71
2022-12-24T15:32:21.542Z,4.72
2022-12-24T15:34:54.632Z,4.70
2022-12-24T15:37:28.141Z,4.67
2022-12-24T15:40:10.691Z,4.62
2022-12-24T15:42:43.851Z,4.58
2022-12-24T15:45:31.394Z,4.59
2022-12-24T15:48:04.205Z,4.57
2022-12-24T15:50:38.578Z,4.54
2022-12-24T15:53:20.252Z,4.55
2022-12-24T15:55:42.518Z,4.56
2022-12-24T15:58:25.240Z,4.51
2022-12-24T16:01:17.762Z,4.46
2022-12-24T16:03:56.644Z,4.44
2022-12-24T16:06:25.387Z,4.41
2022-12-24T16:08:55.713Z,4.39
2022-12-24T16:11:35.713Z,4.37
2022-12-24T16:14:18.672Z,4.35
2022-12-24T16:16:48.372Z,4.33
2022-12-24T16:19:23.328Z,4.34
2022-12-24T16:22:06.875Z,4.36
2022-12-24T16:24:35.764Z,4.37
2022-12-24T16:27:10.047Z,4.37
2022-12-24T16:29:38.933Z,4.35
2022-12-24T16:32:17.341Z,4.30
2022-12-24T16:34:46.103Z,4.23
2022-12-24T16:37:14.591Z,4.19
2022-12-24T16:39:43.392Z,4.18
2022-12-24T16:42:30.387Z,4.19
2022-12-24T16:44:59.187Z,4.22
2022-12-24T16:47:32.407Z,4.21
2022-12-24T16:50:02.793Z,4.20
2022-12-24T16:52:33.456Z,4.18
2022-12-24T16:55:02.425Z,4.19
2022-12-24T16:57:33.163Z,4.20
2022-12-24T17:00:06.065Z,4.17
2022-12-24T17:02:36.776Z,4.18
2022-12-24T17:05:08.328Z,4.18
2022-12-24T17:07:42.949Z,4.22
2022-12-24T17:10:10.709Z,4.24
2022-12-24T17:12:39.497Z,4.24
2022-12-24T17:15:10.579Z,4.28
2022-12-24T17:17:39.940Z,4.29
2022-12-24T17:20:09.661Z,4.29
2022-12-24T17:22:38.362Z,4.33
2022-12-24T17:25:08.864Z,4.36
2022-12-24T17:27:38.281Z,4.33
2022-12-24T17:30:08.455Z,4.33
2022-12-24T17:32:37.064Z,4.34
2022-12-24T17:35:07.271Z,4.33
2022-12-24T17:37:35.924Z,4.35
2022-12-24T17:40:06.577Z,4.36
2022-12-24T17:42:37.064Z,4.38
2022-12-24T17:45:07.513Z,4.40
2022-12-24T17:47:36.008Z,4.40
2022-12-24T17:50:07.145Z,4.36
2022-12-24T17:52:35.864Z,4.36
2022-12-24T17:55:06.441Z,4.38
2022-12-24T17:57:35.867Z,4.34
2022-12-24T18:00:07.568Z,4.30
2022-12-24T18:02:36.926Z,4.27
2022-12-24T18:05:07.292Z,4.24
2022-12-24T18:07:36.261Z,4.21
2022-12-24T18:10:05.653Z,4.16
2022-12-24T18:12:34.341Z,4.13
2022-12-24T18:15:02.882Z,4.15
2022-12-24T18:17:31.772Z,4.10
2022-12-24T18:20:00.561Z,4.06
2022-12-24T18:22:29.151Z,4.05
2022-12-24T18:24:58.036Z,4.06
2022-12-24T18:27:26.557Z,4.06
2022-12-24T18:29:55.180Z,4.07
2022-12-24T18:32:23.712Z,4.09
2022-12-24T18:34:52.227Z,4.09
2022-12-24T18:37:20.915Z,4.09
2022-12-24T18:39:50.647Z,4.09
2022-12-24T18:42:19.319Z,4.08
2022-12-24T18:44:48.164Z,4.07
2022-12-24T18:47:17.140Z,4.05
2022-12-24T18:49:46.002Z,4.04
2022-12-24T18:52:20.803Z,4.02
2022-12-24T18:54:50.218Z,4.02
2022-12-24T18:57:18.757Z,4.00
2022-12-24T18:59:47.593Z,3.99
2022-12-24T19:02:16.472Z,4.01
2022-12-24T19:04:45.780Z,4.03
2022-12-24T19:07:14.808Z,4.05
2022-12-24T19:09:45.591Z,4.03
2022-12-24T19:12:14.771Z,4.03
2022-12-24T19:14:43.662Z,4.06
2022-12-24T19:17:12.306Z,4.10
2022-12-24T19:19:41.922Z,4.12
2022-12-24T19:22:10.601Z,4.14
2022-12-24T19:24:39.651Z,4.14
2022-12-24T19:27:08.222Z,4.12
2022-12-24T19:29:36.899Z,4.09
2022-12-24T19:32:06.284Z,4.07
2022-12-24T19:34:35.079Z,4.06
2022-12-24T19:37:09.263Z,4.07
2022-12-24T19:39:38.182Z,4.10
2022-12-24T19:42:07.603Z,4.09
2022-12-24T19:44:37.988Z,4.09
2022-12-24T19:47:06.672Z,4.06
2022-12-24T19:49:36.500Z,4.05
2022-12-24T19:52:05.607Z,4.06
2022-12-24T19:54:35.319Z,4.08
2022-12-24T19:57:04.182Z,4.08
2022-12-24T19:59:35.338Z,4.07
2022-12-24T20:02:04.427Z,4.08
2022-12-24T20:04:33.852Z,4.08
2022-12-24T20:07:02.981Z,4.07
2022-12-24T20:09:33.795Z,4.07
2022-12-24T20:12:02.379Z,4.10
2022-12-24T20:14:32.219Z,4.09
2022-12-24T20:17:01.285Z,4.06
2022-12-24T20:19:30.723Z,4.04
2022-12-24T20:21:59.256Z,4.00
2022-12-24T20:24:28.246Z,3.99
2022-12-24T20:26:56.867Z,4.01
2022-12-24T20:29:25.354Z,4.02
2022-12-24T20:31:54.174Z,4.01
2022-12-24T20:34:24.672Z,4.01
2022-12-24T20:36:54.548Z,3.98
2022-12-24T20:39:23.439Z,3.95
2022-12-24T20:41:53.094Z,3.94
2022-12-24T20:44:21.817Z,3.95
2022-12-24T20:46:51.257Z,3.96
2022-12-24T20:49:19.747Z,3.96
2022-12-24T20:51:48.410Z,3.97
2022-12-24T20:54:20.600Z,4.00
2022-12-24T20:56:58.564Z,3.98
2022-12-24T20:59:20.955Z,3.97
2022-12-24T21:01:49.469Z,3.96
2022-12-24T21:04:18.253Z,3.97
2022-12-24T21:06:49.148Z,3.98
2022-12-24T21:09:18.332Z,4.00
2022-12-24T21:11:49.802Z,3.98
2022-12-24T21:14:21.630Z,3.98
2022-12-24T21:16:52.453Z,3.98
2022-12-24T21:19:24.197Z,3.98
2022-12-24T21:21:53.380Z,3.99
2022-12-24T21:24:22.485Z,4.00
2022-12-24T21:26:51.288Z,4.01
2022-12-24T21:29:20.129Z,4.02
2022-12-24T21:31:49.055Z,4.03
2022-12-24T21:34:18.020Z,4.05
2022-12-24T21:36:47.003Z,4.04
2022-12-24T21:39:16.607Z,4.06
2022-12-24T21:41:45.195Z,4.06
2022-12-24T21:44:14.127Z,4.05
2022-12-24T21:46:43.971Z,4.05
2022-12-24T21:49:31.637Z,4.08
2022-12-24T21:52:01.601Z,4.08
2022-12-24T21:54:31.234Z,4.06
2022-12-24T21:57:24.231Z,4.04
2022-12-24T21:59:59.305Z,4.03
2022-12-24T22:02:28.902Z,3.99
2022-12-24T22:04:58.252Z,4.01
2022-12-24T22:07:46.605Z,4.03
2022-12-24T22:10:34.409Z,4.03
2022-12-24T22:13:07.730Z,4.04
2022-12-24T22:15:38.910Z,4.06
2022-12-24T22:18:08.085Z,4.07
2022-12-24T22:20:37.394Z,4.06
2022-12-24T22:23:06.149Z,4.06
2022-12-24T22:25:35.270Z,4.06
2022-12-24T22:28:04.004Z,4.09
2022-12-24T22:30:32.510Z,4.06
2022-12-24T22:33:01.292Z,4.05
2022-12-24T22:35:30.653Z,4.02
2022-12-24T22:38:00.616Z,4.02
2022-12-24T22:40:30.224Z,4.05
2022-12-24T22:42:58.840Z,4.08
2022-12-24T22:45:27.543Z,4.10
2022-12-24T22:47:56.152Z,4.08
2022-12-24T22:50:24.856Z,4.06
2022-12-24T22:52:53.586Z,4.04
2022-12-24T22:55:24.313Z,4.06
2022-12-24T22:57:53.871Z,4.07
2022-12-24T23:00:42.934Z,4.08
2022-12-24T23:03:11.966Z,4.09
2022-12-24T23:05:40.733Z,4.07
2022-12-24T23:08:09.658Z,4.07
2022-12-24T23:10:38.666Z,4.04
2022-12-24T23:13:25.700Z,4.05
2022-12-24T23:15:54.323Z,4.06
2022-12-24T23:18:23.399Z,4.09
2022-12-24T23:20:53.738Z,4.09
2022-12-24T23:23:22.308Z,4.10
2022-12-24T23:25:51.607Z,4.06
2022-12-24T23:28:20.297Z,4.02
2022-12-24T23:30:58.585Z,4.01
2022-12-24T23:33:27.682Z,3.99
2022-12-24T23:35:56.376Z,3.98
2022-12-24T23:38:25.831Z,3.99
2022-12-24T23:41:03.808Z,3.99
2022-12-24T23:43:33.476Z,3.98
2022-12-24T23:46:02.825Z,4.00
2022-12-24T23:48:31.676Z,3.98
2022-12-24T23:51:08.558Z,4.00
2022-12-24T23:53:37.394Z,4.01
2022-12-24T23:56:06.226Z,4.01
2022-12-24T23:58:35.226Z,4.02
